sensor_id;sensor_type;location;lat;lon;timestamp;temperature;humidity
83019;DHT22;72834;40.104;18.336;2024-01-30T00:00:25;8.10;99.90
83019;DHT22;72834;40.104;18.336;2024-01-30T00:02:51;8.20;99.90
83019;DHT22;72834;40.104;18.336;2024-01-30T00:05:17;8.10;99.90
83019;DHT22;72834;40.104;18.336;2024-01-30T00:07:44;8.10;99.90
83019;DHT22;72834;40.104;18.336;2024-01-30T00:10:10;8.10;99.90
83019;DHT22;72834;40.104;18.336;2024-01-30T00:12:36;8.10;99.90
83019;DHT22;72834;40.104;18.336;2024-01-30T00:15:03;8.00;99.90
83019;DHT22;72834;40.104;18.336;2024-01-30T00:17:31;8.00;99.90
83019;DHT22;72834;40.104;18.336;2024-01-30T00:19:57;8.00;99.90
83019;DHT22;72834;40.104;18.336;2024-01-30T00:22:23;7.90;99.90
83019;DHT22;72834;40.104;18.336;2024-01-30T00:24:49;7.90;99.90
83019;DHT22;72834;40.104;18.336;2024-01-30T00:27:15;7.80;99.90
83019;DHT22;72834;40.104;18.336;2024-01-30T00:29:42;7.80;99.90
83019;DHT22;72834;40.104;18.336;2024-01-30T00:32:08;7.80;99.90
83019;DHT22;72834;40.104;18.336;2024-01-30T00:34:34;7.80;99.90
83019;DHT22;72834;40.104;18.336;2024-01-30T00:37:01;7.70;99.90
83019;DHT22;72834;40.104;18.336;2024-01-30T00:39:27;7.70;99.90
83019;DHT22;72834;40.104;18.336;2024-01-30T00:41:54;7.60;99.90
83019;DHT22;72834;40.104;18.336;2024-01-30T00:44:20;7.60;99.90
83019;DHT22;72834;40.104;18.336;2024-01-30T00:46:46;7.60;99.90
83019;DHT22;72834;40.104;18.336;2024-01-30T00:49:13;7.60;99.90
83019;DHT22;72834;40.104;18.336;2024-01-30T00:51:39;7.60;99.90
83019;DHT22;72834;40.104;18.336;2024-01-30T00:54:05;7.60;99.90
83019;DHT22;72834;40.104;18.336;2024-01-30T00:56:32;7.50;99.90
83019;DHT22;72834;40.104;18.336;2024-01-30T00:58:59;7.60;99.90
83019;DHT22;72834;40.104;18.336;2024-01-30T01:01:25;7.60;99.90
83019;DHT22;72834;40.104;18.336;2024-01-30T01:03:51;7.60;99.90
83019;DHT22;72834;40.104;18.336;2024-01-30T01:06:17;7.60;99.90
83019;DHT22;72834;40.104;18.336;2024-01-30T01:08:44;7.60;99.90
83019;DHT22;72834;40.104;18.336;2024-01-30T01:11:10;7.60;99.90
83019;DHT22;72834;40.104;18.336;2024-01-30T01:13:36;7.60;99.90
83019;DHT22;72834;40.104;18.336;2024-01-30T01:16:02;7.60;99.90
83019;DHT22;72834;40.104;18.336;2024-01-30T01:18:30;7.50;99.90
83019;DHT22;72834;40.104;18.336;2024-01-30T01:20:56;7.50;99.90
83019;DHT22;72834;40.104;18.336;2024-01-30T01:23:22;7.40;99.90
83019;DHT22;72834;40.104;18.336;2024-01-30T01:25:48;7.40;99.90
83019;DHT22;72834;40.104;18.336;2024-01-30T01:28:14;7.30;99.90
83019;DHT22;72834;40.104;18.336;2024-01-30T01:30:41;7.30;99.90
83019;DHT22;72834;40.104;18.336;2024-01-30T01:33:07;7.30;99.90
83019;DHT22;72834;40.104;18.336;2024-01-30T01:35:35;7.30;99.90
83019;DHT22;72834;40.104;18.336;2024-01-30T01:38:01;7.20;99.90
83019;DHT22;72834;40.104;18.336;2024-01-30T01:40:30;7.20;99.90
83019;DHT22;72834;40.104;18.336;2024-01-30T01:42:56;7.20;99.90
83019;DHT22;72834;40.104;18.336;2024-01-30T01:45:22;7.20;99.90
83019;DHT22;72834;40.104;18.336;2024-01-30T01:47:52;7.10;99.90
83019;DHT22;72834;40.104;18.336;2024-01-30T01:50:19;7.10;99.90
83019;DHT22;72834;40.104;18.336;2024-01-30T01:52:50;7.00;99.90
83019;DHT22;72834;40.104;18.336;2024-01-30T01:55:18;6.80;99.90
83019;DHT22;72834;40.104;18.336;2024-01-30T01:57:48;6.80;99.90
83019;DHT22;72834;40.104;18.336;2024-01-30T02:03:04;6.70;99.90
83019;DHT22;72834;40.104;18.336;2024-01-30T02:05:32;6.70;99.90
83019;DHT22;72834;40.104;18.336;2024-01-30T02:07:58;6.70;99.90
83019;DHT22;72834;40.104;18.336;2024-01-30T02:10:25;6.70;99.90
83019;DHT22;72834;40.104;18.336;2024-01-30T02:12:51;6.60;99.90
83019;DHT22;72834;40.104;18.336;2024-01-30T02:15:17;6.60;99.90
83019;DHT22;72834;40.104;18.336;2024-01-30T02:17:44;6.50;99.90
83019;DHT22;72834;40.104;18.336;2024-01-30T02:20:10;6.60;99.90
83019;DHT22;72834;40.104;18.336;2024-01-30T02:22:38;6.80;99.90
83019;DHT22;72834;40.104;18.336;2024-01-30T02:25:04;7.00;99.90
83019;DHT22;72834;40.104;18.336;2024-01-30T02:27:31;7.10;99.90
83019;DHT22;72834;40.104;18.336;2024-01-30T02:29:57;7.20;99.90
83019;DHT22;72834;40.104;18.336;2024-01-30T02:32:23;7.30;99.90
83019;DHT22;72834;40.104;18.336;2024-01-30T02:34:49;7.30;99.90
83019;DHT22;72834;40.104;18.336;2024-01-30T02:37:17;7.30;99.90
83019;DHT22;72834;40.104;18.336;2024-01-30T02:39:43;7.20;99.90
83019;DHT22;72834;40.104;18.336;2024-01-30T02:42:09;7.20;99.90
83019;DHT22;72834;40.104;18.336;2024-01-30T02:44:35;7.10;99.90
83019;DHT22;72834;40.104;18.336;2024-01-30T02:47:02;7.10;99.90
83019;DHT22;72834;40.104;18.336;2024-01-30T02:49:28;7.00;99.90
83019;DHT22;72834;40.104;18.336;2024-01-30T02:51:54;7.00;99.90
83019;DHT22;72834;40.104;18.336;2024-01-30T02:54:22;7.00;99.90
83019;DHT22;72834;40.104;18.336;2024-01-30T02:56:48;6.90;99.90
83019;DHT22;72834;40.104;18.336;2024-01-30T02:59:15;6.90;99.90
83019;DHT22;72834;40.104;18.336;2024-01-30T03:01:44;6.80;99.90
83019;DHT22;72834;40.104;18.336;2024-01-30T03:04:11;6.80;99.90
83019;DHT22;72834;40.104;18.336;2024-01-30T03:06:37;6.80;99.90
83019;DHT22;72834;40.104;18.336;2024-01-30T03:09:04;6.90;99.90
83019;DHT22;72834;40.104;18.336;2024-01-30T03:11:31;6.90;99.90
83019;DHT22;72834;40.104;18.336;2024-01-30T03:13:57;6.90;99.90
83019;DHT22;72834;40.104;18.336;2024-01-30T03:16:23;6.80;99.90
83019;DHT22;72834;40.104;18.336;2024-01-30T03:18:49;6.70;99.90
83019;DHT22;72834;40.104;18.336;2024-01-30T03:21:16;6.70;99.90
83019;DHT22;72834;40.104;18.336;2024-01-30T03:23:42;6.60;99.90
83019;DHT22;72834;40.104;18.336;2024-01-30T03:26:08;6.60;99.90
83019;DHT22;72834;40.104;18.336;2024-01-30T03:28:35;6.50;99.90
83019;DHT22;72834;40.104;18.336;2024-01-30T03:31:01;6.50;99.90
83019;DHT22;72834;40.104;18.336;2024-01-30T03:33:27;6.60;99.90
83019;DHT22;72834;40.104;18.336;2024-01-30T03:35:54;6.70;99.90
83019;DHT22;72834;40.104;18.336;2024-01-30T03:38:20;6.70;99.90
83019;DHT22;72834;40.104;18.336;2024-01-30T03:40:46;6.80;99.90
83019;DHT22;72834;40.104;18.336;2024-01-30T03:43:13;6.80;99.90
83019;DHT22;72834;40.104;18.336;2024-01-30T03:45:39;6.80;99.90
83019;DHT22;72834;40.104;18.336;2024-01-30T03:48:05;6.90;99.90
83019;DHT22;72834;40.104;18.336;2024-01-30T03:50:32;6.90;99.90
83019;DHT22;72834;40.104;18.336;2024-01-30T03:52:58;6.90;99.90
83019;DHT22;72834;40.104;18.336;2024-01-30T03:55:24;6.90;99.90
83019;DHT22;72834;40.104;18.336;2024-01-30T03:57:50;6.90;99.90
83019;DHT22;72834;40.104;18.336;2024-01-30T04:00:17;6.90;99.90
83019;DHT22;72834;40.104;18.336;2024-01-30T04:02:45;6.90;99.90
83019;DHT22;72834;40.104;18.336;2024-01-30T04:05:11;7.00;99.90
83019;DHT22;72834;40.104;18.336;2024-01-30T04:07:37;7.00;99.90
83019;DHT22;72834;40.104;18.336;2024-01-30T04:10:04;6.90;99.90
83019;DHT22;72834;40.104;18.336;2024-01-30T04:12:32;6.90;99.90
83019;DHT22;72834;40.104;18.336;2024-01-30T04:14:58;6.90;99.90
83019;DHT22;72834;40.104;18.336;2024-01-30T04:17:24;6.80;99.90
83019;DHT22;72834;40.104;18.336;2024-01-30T04:19:50;6.80;99.90
83019;DHT22;72834;40.104;18.336;2024-01-30T04:22:17;6.80;99.90
83019;DHT22;72834;40.104;18.336;2024-01-30T04:24:43;6.70;99.90
83019;DHT22;72834;40.104;18.336;2024-01-30T04:27:09;6.60;99.90
83019;DHT22;72834;40.104;18.336;2024-01-30T04:29:35;6.70;99.90
83019;DHT22;72834;40.104;18.336;2024-01-30T04:32:02;6.70;99.90
83019;DHT22;72834;40.104;18.336;2024-01-30T04:34:28;6.70;99.90
83019;DHT22;72834;40.104;18.336;2024-01-30T04:36:54;6.70;99.90
83019;DHT22;72834;40.104;18.336;2024-01-30T04:39:21;6.70;99.90
83019;DHT22;72834;40.104;18.336;2024-01-30T04:41:47;6.70;99.90
83019;DHT22;72834;40.104;18.336;2024-01-30T04:44:14;6.50;99.90
83019;DHT22;72834;40.104;18.336;2024-01-30T04:46:41;6.40;99.90
83019;DHT22;72834;40.104;18.336;2024-01-30T04:49:07;6.30;99.90
83019;DHT22;72834;40.104;18.336;2024-01-30T04:51:33;6.30;99.90
83019;DHT22;72834;40.104;18.336;2024-01-30T04:53:59;6.30;99.90
83019;DHT22;72834;40.104;18.336;2024-01-30T04:56:26;6.20;99.90
83019;DHT22;72834;40.104;18.336;2024-01-30T04:58:52;6.30;99.90
83019;DHT22;72834;40.104;18.336;2024-01-30T05:01:18;6.40;99.90
83019;DHT22;72834;40.104;18.336;2024-01-30T05:03:44;6.40;99.90
83019;DHT22;72834;40.104;18.336;2024-01-30T05:06:11;6.40;99.90
83019;DHT22;72834;40.104;18.336;2024-01-30T05:08:37;6.50;99.90
83019;DHT22;72834;40.104;18.336;2024-01-30T05:11:05;6.50;99.90
83019;DHT22;72834;40.104;18.336;2024-01-30T05:13:32;6.70;99.90
83019;DHT22;72834;40.104;18.336;2024-01-30T05:15:58;6.80;99.90
83019;DHT22;72834;40.104;18.336;2024-01-30T05:18:25;6.80;99.90
83019;DHT22;72834;40.104;18.336;2024-01-30T05:20:51;6.70;99.90
83019;DHT22;72834;40.104;18.336;2024-01-30T05:23:17;6.70;99.90
83019;DHT22;72834;40.104;18.336;2024-01-30T05:25:43;6.60;99.90
83019;DHT22;72834;40.104;18.336;2024-01-30T05:28:10;6.60;99.90
83019;DHT22;72834;40.104;18.336;2024-01-30T05:30:36;6.80;99.90
83019;DHT22;72834;40.104;18.336;2024-01-30T05:33:02;6.80;99.90
83019;DHT22;72834;40.104;18.336;2024-01-30T05:35:29;6.90;99.90
83019;DHT22;72834;40.104;18.336;2024-01-30T05:37:55;7.00;99.90
83019;DHT22;72834;40.104;18.336;2024-01-30T05:40:21;7.10;99.90
83019;DHT22;72834;40.104;18.336;2024-01-30T05:42:48;7.10;99.90
83019;DHT22;72834;40.104;18.336;2024-01-30T05:45:14;7.10;99.90
83019;DHT22;72834;40.104;18.336;2024-01-30T05:47:40;7.10;99.90
83019;DHT22;72834;40.104;18.336;2024-01-30T05:50:12;7.10;99.90
83019;DHT22;72834;40.104;18.336;2024-01-30T05:52:39;7.10;99.90
83019;DHT22;72834;40.104;18.336;2024-01-30T05:55:06;7.10;99.90
83019;DHT22;72834;40.104;18.336;2024-01-30T05:57:32;7.10;99.90
83019;DHT22;72834;40.104;18.336;2024-01-30T05:59:58;7.10;99.90
83019;DHT22;72834;40.104;18.336;2024-01-30T06:02:25;7.10;99.90
83019;DHT22;72834;40.104;18.336;2024-01-30T06:04:51;7.10;99.90
83019;DHT22;72834;40.104;18.336;2024-01-30T06:07:17;7.10;99.90
83019;DHT22;72834;40.104;18.336;2024-01-30T06:09:44;7.10;99.90
83019;DHT22;72834;40.104;18.336;2024-01-30T06:12:11;7.10;99.90
83019;DHT22;72834;40.104;18.336;2024-01-30T06:14:38;7.10;99.90
83019;DHT22;72834;40.104;18.336;2024-01-30T06:17:04;7.10;99.90
83019;DHT22;72834;40.104;18.336;2024-01-30T06:19:31;7.20;99.90
83019;DHT22;72834;40.104;18.336;2024-01-30T06:21:57;7.20;99.90
83019;DHT22;72834;40.104;18.336;2024-01-30T06:24:23;7.30;99.90
83019;DHT22;72834;40.104;18.336;2024-01-30T06:26:50;7.40;99.90
83019;DHT22;72834;40.104;18.336;2024-01-30T06:29:16;7.40;99.90
83019;DHT22;72834;40.104;18.336;2024-01-30T06:31:42;7.40;99.90
83019;DHT22;72834;40.104;18.336;2024-01-30T06:34:09;7.50;99.90
83019;DHT22;72834;40.104;18.336;2024-01-30T06:36:37;7.50;99.90
83019;DHT22;72834;40.104;18.336;2024-01-30T06:39:04;7.40;99.90
83019;DHT22;72834;40.104;18.336;2024-01-30T06:41:31;7.50;99.90
83019;DHT22;72834;40.104;18.336;2024-01-30T06:43:57;7.50;99.90
83019;DHT22;72834;40.104;18.336;2024-01-30T06:46:23;7.40;99.90
83019;DHT22;72834;40.104;18.336;2024-01-30T06:48:50;7.50;99.90
83019;DHT22;72834;40.104;18.336;2024-01-30T06:51:16;7.50;99.90
83019;DHT22;72834;40.104;18.336;2024-01-30T06:53:42;7.50;99.90
83019;DHT22;72834;40.104;18.336;2024-01-30T06:56:08;7.50;99.90
83019;DHT22;72834;40.104;18.336;2024-01-30T06:58:35;7.70;99.90
83019;DHT22;72834;40.104;18.336;2024-01-30T07:01:01;7.70;99.90
83019;DHT22;72834;40.104;18.336;2024-01-30T07:03:28;7.80;99.90
83019;DHT22;72834;40.104;18.336;2024-01-30T07:05:54;7.80;99.90
83019;DHT22;72834;40.104;18.336;2024-01-30T07:08:20;7.80;99.90
83019;DHT22;72834;40.104;18.336;2024-01-30T07:10:46;7.90;99.90
83019;DHT22;72834;40.104;18.336;2024-01-30T07:13:15;7.90;99.90
83019;DHT22;72834;40.104;18.336;2024-01-30T07:15:42;8.00;99.90
83019;DHT22;72834;40.104;18.336;2024-01-30T07:18:09;8.00;99.90
83019;DHT22;72834;40.104;18.336;2024-01-30T07:20:36;8.00;99.90
83019;DHT22;72834;40.104;18.336;2024-01-30T07:23:02;8.10;99.90
83019;DHT22;72834;40.104;18.336;2024-01-30T07:25:29;8.10;99.90
83019;DHT22;72834;40.104;18.336;2024-01-30T07:27:56;8.10;99.90
83019;DHT22;72834;40.104;18.336;2024-01-30T07:30:23;8.20;99.90
83019;DHT22;72834;40.104;18.336;2024-01-30T07:32:50;8.20;99.90
83019;DHT22;72834;40.104;18.336;2024-01-30T07:35:16;8.30;99.90
83019;DHT22;72834;40.104;18.336;2024-01-30T07:37:42;8.30;99.90
83019;DHT22;72834;40.104;18.336;2024-01-30T07:40:09;8.30;99.90
83019;DHT22;72834;40.104;18.336;2024-01-30T07:42:35;8.40;99.90
83019;DHT22;72834;40.104;18.336;2024-01-30T07:45:01;8.40;99.90
83019;DHT22;72834;40.104;18.336;2024-01-30T07:47:28;8.40;99.90
83019;DHT22;72834;40.104;18.336;2024-01-30T07:49:54;8.50;99.90
83019;DHT22;72834;40.104;18.336;2024-01-30T07:52:20;8.50;99.90
83019;DHT22;72834;40.104;18.336;2024-01-30T07:54:50;8.60;99.90
83019;DHT22;72834;40.104;18.336;2024-01-30T07:57:19;8.60;99.90
83019;DHT22;72834;40.104;18.336;2024-01-30T07:59:45;8.60;99.90
83019;DHT22;72834;40.104;18.336;2024-01-30T08:02:12;8.70;99.90
83019;DHT22;72834;40.104;18.336;2024-01-30T08:04:39;8.70;99.90
83019;DHT22;72834;40.104;18.336;2024-01-30T08:07:05;8.70;99.90
83019;DHT22;72834;40.104;18.336;2024-01-30T08:09:32;8.80;99.90
83019;DHT22;72834;40.104;18.336;2024-01-30T08:11:58;8.80;99.90
83019;DHT22;72834;40.104;18.336;2024-01-30T08:14:24;8.80;99.90
83019;DHT22;72834;40.104;18.336;2024-01-30T08:16:52;8.90;99.90
83019;DHT22;72834;40.104;18.336;2024-01-30T08:19:19;8.90;99.90
83019;DHT22;72834;40.104;18.336;2024-01-30T08:21:46;8.90;99.90
83019;DHT22;72834;40.104;18.336;2024-01-30T08:24:13;8.90;99.90
83019;DHT22;72834;40.104;18.336;2024-01-30T08:26:39;9.00;99.90
83019;DHT22;72834;40.104;18.336;2024-01-30T08:29:06;9.00;99.90
83019;DHT22;72834;40.104;18.336;2024-01-30T08:31:32;9.00;99.90
83019;DHT22;72834;40.104;18.336;2024-01-30T08:33:58;9.10;99.90
83019;DHT22;72834;40.104;18.336;2024-01-30T08:36:25;9.10;99.90
83019;DHT22;72834;40.104;18.336;2024-01-30T08:38:51;9.10;99.90
83019;DHT22;72834;40.104;18.336;2024-01-30T08:41:17;9.20;99.90
83019;DHT22;72834;40.104;18.336;2024-01-30T08:43:43;9.20;99.90
83019;DHT22;72834;40.104;18.336;2024-01-30T08:46:11;9.20;99.90
83019;DHT22;72834;40.104;18.336;2024-01-30T08:48:37;9.20;99.90
83019;DHT22;72834;40.104;18.336;2024-01-30T08:51:04;9.20;99.90
83019;DHT22;72834;40.104;18.336;2024-01-30T08:53:35;9.20;99.90
83019;DHT22;72834;40.104;18.336;2024-01-30T08:56:03;9.30;99.90
83019;DHT22;72834;40.104;18.336;2024-01-30T08:58:29;9.30;99.90
83019;DHT22;72834;40.104;18.336;2024-01-30T09:00:56;9.30;99.90
83019;DHT22;72834;40.104;18.336;2024-01-30T09:03:22;9.30;99.90
83019;DHT22;72834;40.104;18.336;2024-01-30T09:05:48;9.40;99.90
83019;DHT22;72834;40.104;18.336;2024-01-30T09:08:15;9.40;99.90
83019;DHT22;72834;40.104;18.336;2024-01-30T09:10:41;9.40;99.90
83019;DHT22;72834;40.104;18.336;2024-01-30T09:13:07;9.40;99.90
83019;DHT22;72834;40.104;18.336;2024-01-30T09:15:33;9.50;99.90
83019;DHT22;72834;40.104;18.336;2024-01-30T09:17:59;9.50;99.90
83019;DHT22;72834;40.104;18.336;2024-01-30T09:20:26;9.50;99.90
83019;DHT22;72834;40.104;18.336;2024-01-30T09:22:52;9.50;99.90
83019;DHT22;72834;40.104;18.336;2024-01-30T09:25:37;9.50;99.90
83019;DHT22;72834;40.104;18.336;2024-01-30T09:28:03;9.50;99.90
83019;DHT22;72834;40.104;18.336;2024-01-30T09:30:30;9.50;99.90
83019;DHT22;72834;40.104;18.336;2024-01-30T09:32:56;9.60;99.90
83019;DHT22;72834;40.104;18.336;2024-01-30T09:35:22;9.60;99.90
83019;DHT22;72834;40.104;18.336;2024-01-30T09:37:48;9.60;99.90
83019;DHT22;72834;40.104;18.336;2024-01-30T09:40:14;9.60;99.90
83019;DHT22;72834;40.104;18.336;2024-01-30T09:42:47;9.70;99.90
83019;DHT22;72834;40.104;18.336;2024-01-30T09:45:18;9.70;99.90
83019;DHT22;72834;40.104;18.336;2024-01-30T09:47:45;9.70;99.90
83019;DHT22;72834;40.104;18.336;2024-01-30T09:50:13;9.70;99.90
83019;DHT22;72834;40.104;18.336;2024-01-30T09:52:40;9.70;99.90
83019;DHT22;72834;40.104;18.336;2024-01-30T09:55:07;9.80;99.90
83019;DHT22;72834;40.104;18.336;2024-01-30T09:57:34;9.80;99.90
83019;DHT22;72834;40.104;18.336;2024-01-30T10:00:02;9.90;99.90
83019;DHT22;72834;40.104;18.336;2024-01-30T10:02:38;9.90;99.90
83019;DHT22;72834;40.104;18.336;2024-01-30T10:05:05;9.90;99.90
83019;DHT22;72834;40.104;18.336;2024-01-30T10:07:32;9.90;99.90
83019;DHT22;72834;40.104;18.336;2024-01-30T10:09:58;9.90;99.90
83019;DHT22;72834;40.104;18.336;2024-01-30T10:12:26;10.00;99.90
83019;DHT22;72834;40.104;18.336;2024-01-30T10:14:53;10.00;99.90
83019;DHT22;72834;40.104;18.336;2024-01-30T10:17:19;10.00;99.90
83019;DHT22;72834;40.104;18.336;2024-01-30T10:19:47;10.10;99.90
83019;DHT22;72834;40.104;18.336;2024-01-30T10:22:14;10.10;99.90
83019;DHT22;72834;40.104;18.336;2024-01-30T10:24:40;10.20;99.90
83019;DHT22;72834;40.104;18.336;2024-01-30T10:27:06;10.30;99.90
83019;DHT22;72834;40.104;18.336;2024-01-30T10:29:33;10.40;99.90
83019;DHT22;72834;40.104;18.336;2024-01-30T10:31:59;10.40;99.90
83019;DHT22;72834;40.104;18.336;2024-01-30T10:34:26;10.40;99.90
83019;DHT22;72834;40.104;18.336;2024-01-30T10:39:32;10.40;99.90
83019;DHT22;72834;40.104;18.336;2024-01-30T10:42:04;10.50;99.90
83019;DHT22;72834;40.104;18.336;2024-01-30T10:45:22;10.50;99.90
83019;DHT22;72834;40.104;18.336;2024-01-30T10:47:27;10.50;99.90
83019;DHT22;72834;40.104;18.336;2024-01-30T10:49:55;10.50;99.90
83019;DHT22;72834;40.104;18.336;2024-01-30T10:52:23;10.60;99.90
83019;DHT22;72834;40.104;18.336;2024-01-30T10:54:53;10.70;99.90
83019;DHT22;72834;40.104;18.336;2024-01-30T10:57:23;10.80;99.90
83019;DHT22;72834;40.104;18.336;2024-01-30T10:59:52;10.80;99.90
83019;DHT22;72834;40.104;18.336;2024-01-30T11:02:19;10.80;99.90
83019;DHT22;72834;40.104;18.336;2024-01-30T11:04:46;10.90;99.90
83019;DHT22;72834;40.104;18.336;2024-01-30T11:07:34;11.00;99.90
83019;DHT22;72834;40.104;18.336;2024-01-30T11:10:02;11.00;99.90
83019;DHT22;72834;40.104;18.336;2024-01-30T11:12:37;11.10;99.90
83019;DHT22;72834;40.104;18.336;2024-01-30T11:15:08;11.10;99.90
83019;DHT22;72834;40.104;18.336;2024-01-30T11:20:12;11.20;99.90
83019;DHT22;72834;40.104;18.336;2024-01-30T11:22:41;11.20;99.90
83019;DHT22;72834;40.104;18.336;2024-01-30T11:25:16;11.20;99.90
83019;DHT22;72834;40.104;18.336;2024-01-30T11:27:44;11.20;99.90
83019;DHT22;72834;40.104;18.336;2024-01-30T11:30:20;11.20;99.90
83019;DHT22;72834;40.104;18.336;2024-01-30T11:33:05;11.20;99.90
83019;DHT22;72834;40.104;18.336;2024-01-30T11:35:39;11.30;99.90
83019;DHT22;72834;40.104;18.336;2024-01-30T11:38:07;11.30;99.90
83019;DHT22;72834;40.104;18.336;2024-01-30T11:40:35;11.30;99.90
83019;DHT22;72834;40.104;18.336;2024-01-30T11:43:03;11.30;99.90
83019;DHT22;72834;40.104;18.336;2024-01-30T11:45:31;11.40;99.90
83019;DHT22;72834;40.104;18.336;2024-01-30T11:47:58;11.40;99.90
83019;DHT22;72834;40.104;18.336;2024-01-30T11:50:38;11.40;99.90
83019;DHT22;72834;40.104;18.336;2024-01-30T11:53:05;11.40;99.90
83019;DHT22;72834;40.104;18.336;2024-01-30T11:55:31;11.50;99.90
83019;DHT22;72834;40.104;18.336;2024-01-30T11:57:58;11.50;99.90
83019;DHT22;72834;40.104;18.336;2024-01-30T12:00:25;11.50;99.90
83019;DHT22;72834;40.104;18.336;2024-01-30T12:02:52;11.40;99.90
83019;DHT22;72834;40.104;18.336;2024-01-30T12:05:22;11.50;99.90
83019;DHT22;72834;40.104;18.336;2024-01-30T12:07:48;11.50;99.90
83019;DHT22;72834;40.104;18.336;2024-01-30T12:10:15;11.60;99.90
83019;DHT22;72834;40.104;18.336;2024-01-30T12:12:45;11.60;99.90
83019;DHT22;72834;40.104;18.336;2024-01-30T12:15:13;11.50;99.90
83019;DHT22;72834;40.104;18.336;2024-01-30T12:17:40;11.50;99.90
83019;DHT22;72834;40.104;18.336;2024-01-30T12:20:11;11.50;99.90
83019;DHT22;72834;40.104;18.336;2024-01-30T12:22:44;11.40;99.90
83019;DHT22;72834;40.104;18.336;2024-01-30T12:25:13;11.50;99.90
83019;DHT22;72834;40.104;18.336;2024-01-30T12:27:44;11.50;99.90
83019;DHT22;72834;40.104;18.336;2024-01-30T12:30:14;11.40;99.90
83019;DHT22;72834;40.104;18.336;2024-01-30T12:32:42;11.40;99.90
83019;DHT22;72834;40.104;18.336;2024-01-30T12:35:13;11.40;99.90
83019;DHT22;72834;40.104;18.336;2024-01-30T12:37:40;11.30;99.90
83019;DHT22;72834;40.104;18.336;2024-01-30T12:40:10;11.30;99.90
83019;DHT22;72834;40.104;18.336;2024-01-30T12:42:37;11.20;99.90
83019;DHT22;72834;40.104;18.336;2024-01-30T12:45:05;11.30;99.90
83019;DHT22;72834;40.104;18.336;2024-01-30T12:47:31;11.30;99.90
83019;DHT22;72834;40.104;18.336;2024-01-30T12:49:58;11.20;99.90
83019;DHT22;72834;40.104;18.336;2024-01-30T12:52:24;11.20;99.90
83019;DHT22;72834;40.104;18.336;2024-01-30T12:54:51;11.20;99.90
83019;DHT22;72834;40.104;18.336;2024-01-30T12:57:18;11.20;99.90
83019;DHT22;72834;40.104;18.336;2024-01-30T12:59:45;11.20;99.90
83019;DHT22;72834;40.104;18.336;2024-01-30T13:02:13;11.20;99.90
83019;DHT22;72834;40.104;18.336;2024-01-30T13:04:40;11.20;99.90
83019;DHT22;72834;40.104;18.336;2024-01-30T13:07:07;11.10;99.90
83019;DHT22;72834;40.104;18.336;2024-01-30T13:09:33;11.10;99.90
83019;DHT22;72834;40.104;18.336;2024-01-30T13:11:59;11.10;99.90
83019;DHT22;72834;40.104;18.336;2024-01-30T13:14:28;11.10;99.90
83019;DHT22;72834;40.104;18.336;2024-01-30T13:16:54;11.10;99.90
83019;DHT22;72834;40.104;18.336;2024-01-30T13:19:21;11.00;99.90
83019;DHT22;72834;40.104;18.336;2024-01-30T13:21:47;11.00;99.90
83019;DHT22;72834;40.104;18.336;2024-01-30T13:24:14;11.00;99.90
83019;DHT22;72834;40.104;18.336;2024-01-30T13:26:42;11.10;99.90
83019;DHT22;72834;40.104;18.336;2024-01-30T13:29:09;11.00;99.90
83019;DHT22;72834;40.104;18.336;2024-01-30T13:31:35;11.10;99.90
83019;DHT22;72834;40.104;18.336;2024-01-30T13:34:01;11.00;99.90
83019;DHT22;72834;40.104;18.336;2024-01-30T13:36:27;11.00;99.90
83019;DHT22;72834;40.104;18.336;2024-01-30T13:38:54;11.00;99.90
83019;DHT22;72834;40.104;18.336;2024-01-30T13:41:20;11.00;99.90
83019;DHT22;72834;40.104;18.336;2024-01-30T13:43:47;11.00;99.90
83019;DHT22;72834;40.104;18.336;2024-01-30T13:46:13;10.90;99.90
83019;DHT22;72834;40.104;18.336;2024-01-30T13:48:39;11.00;99.90
83019;DHT22;72834;40.104;18.336;2024-01-30T13:51:06;11.00;99.90
83019;DHT22;72834;40.104;18.336;2024-01-30T13:53:32;11.00;99.90
83019;DHT22;72834;40.104;18.336;2024-01-30T13:55:58;11.00;99.90
83019;DHT22;72834;40.104;18.336;2024-01-30T13:58:25;11.00;99.90
83019;DHT22;72834;40.104;18.336;2024-01-30T14:00:51;11.00;99.90
83019;DHT22;72834;40.104;18.336;2024-01-30T14:03:17;11.00;99.90
83019;DHT22;72834;40.104;18.336;2024-01-30T14:05:44;11.00;99.90
83019;DHT22;72834;40.104;18.336;2024-01-30T14:08:10;11.00;99.90
83019;DHT22;72834;40.104;18.336;2024-01-30T14:10:37;11.00;99.90
83019;DHT22;72834;40.104;18.336;2024-01-30T14:13:03;11.00;99.90
83019;DHT22;72834;40.104;18.336;2024-01-30T14:15:29;11.00;99.90
83019;DHT22;72834;40.104;18.336;2024-01-30T14:17:56;11.00;99.90
83019;DHT22;72834;40.104;18.336;2024-01-30T14:20:22;11.00;99.90
83019;DHT22;72834;40.104;18.336;2024-01-30T14:22:48;10.90;99.90
83019;DHT22;72834;40.104;18.336;2024-01-30T14:25:15;11.00;99.90
83019;DHT22;72834;40.104;18.336;2024-01-30T14:27:42;10.90;99.90
83019;DHT22;72834;40.104;18.336;2024-01-30T14:30:10;10.90;99.90
83019;DHT22;72834;40.104;18.336;2024-01-30T14:32:37;10.90;99.90
83019;DHT22;72834;40.104;18.336;2024-01-30T14:35:05;10.90;99.90
83019;DHT22;72834;40.104;18.336;2024-01-30T14:37:31;10.90;99.90
83019;DHT22;72834;40.104;18.336;2024-01-30T14:39:57;10.90;99.90
83019;DHT22;72834;40.104;18.336;2024-01-30T14:42:23;10.90;99.90
83019;DHT22;72834;40.104;18.336;2024-01-30T14:44:50;10.80;99.90
83019;DHT22;72834;40.104;18.336;2024-01-30T14:47:16;10.80;99.90
83019;DHT22;72834;40.104;18.336;2024-01-30T14:49:42;10.80;99.90
83019;DHT22;72834;40.104;18.336;2024-01-30T14:52:09;10.80;99.90
83019;DHT22;72834;40.104;18.336;2024-01-30T14:54:36;10.70;99.90
83019;DHT22;72834;40.104;18.336;2024-01-30T14:57:03;10.70;99.90
83019;DHT22;72834;40.104;18.336;2024-01-30T14:59:29;10.70;99.90
83019;DHT22;72834;40.104;18.336;2024-01-30T15:01:56;10.60;99.90
83019;DHT22;72834;40.104;18.336;2024-01-30T15:04:22;10.60;99.90
83019;DHT22;72834;40.104;18.336;2024-01-30T15:06:49;10.60;99.90
83019;DHT22;72834;40.104;18.336;2024-01-30T15:09:15;10.60;99.90
83019;DHT22;72834;40.104;18.336;2024-01-30T15:11:44;10.50;99.90
83019;DHT22;72834;40.104;18.336;2024-01-30T15:14:10;10.40;99.90
83019;DHT22;72834;40.104;18.336;2024-01-30T15:16:37;10.40;99.90
83019;DHT22;72834;40.104;18.336;2024-01-30T15:19:04;10.40;99.90
83019;DHT22;72834;40.104;18.336;2024-01-30T15:21:31;10.30;99.90
83019;DHT22;72834;40.104;18.336;2024-01-30T15:23:58;10.30;99.90
83019;DHT22;72834;40.104;18.336;2024-01-30T15:26:24;10.20;99.90
83019;DHT22;72834;40.104;18.336;2024-01-30T15:28:51;10.20;99.90
83019;DHT22;72834;40.104;18.336;2024-01-30T15:31:18;10.20;99.90